Campiña-No se requiere un especial cuidado respecto a la situación meteorológica.   -   No hay avisos

Informes METAR

 

LEZL - Sevilla, Spain
Distancia de la estación: ENE 8km
Actualización: 12/08/2020 11:00
Despejado
Despejado
 Viento de variable
Viento: variable 13 km/h
Temperatura: 23°C
Rocío: 17°C
Humedad: 69%
Barómetro: 1016 hPa
Resumen: Despejado
Visibilidad: mayor de 10 km
2020/08/12 09:00 LEZL 120900Z VRB07KT CAVOK 23/17 Q1016 NOSIG
LEMO - Morón, Spain
Distancia de la estación: SE 43km
Actualización: 12/08/2020 11:30
Poco nuboso
Poco nuboso
 Viento de OSO
Viento: OSO 20 km/h
Temperatura: 24°C
Rocío: 16°C
Humedad: 61%
Barómetro: 1016 hPa
Nubes: Poco nuboso
Visibilidad: 10 km
Detalles de las nubes: Poco nuboso 610 m
2020/08/12 09:30 LEMO 120930Z 24011KT 200V280 9999 FEW020 24/16 Q1016 NOSIG
LEJR - Jeréz, Spain
Distancia de la estación: S 71km
Actualización: 12/08/2020 11:30
Muy nuboso
Muy nuboso
 Viento de O
Viento: O 6 km/h
Temperatura: 24°C
Rocío: 18°C
Humedad: 69%
Barómetro: 1016 hPa
Nubes: Muy nuboso
Visibilidad: 10 km
Detalles de las nubes: Poco nuboso 762 m
Muy nuboso 1219 m
2020/08/12 09:30 LEJR 120930Z 26003KT 200V010 9999 FEW025 BKN040 24/18 Q1016
 
LERT - Rota, Spain
Distancia de la estación: SSO 89km
Actualización: 12/08/2020 11:30
Muy nuboso
Muy nuboso
 Viento de SO
Viento: SO 11 km/h
Temperatura: 23°C
Rocío: 18°C
Humedad: 74%
Barómetro: 1016 hPa
Nubes: Muy nuboso
Visibilidad: 10 km
Detalles de las nubes: Poco nuboso 671 m
Muy nuboso 823 m
2020/08/12 09:30 LERT 120930Z 22006KT 190V250 9999 FEW022 BKN027 23/18 Q1016 NOSIG
LEMG - Málaga, Spain
Distancia de la estación: ESE 157km
Actualización: 12/08/2020 11:30
Poco nuboso
Poco nuboso
 Viento de ENE
Viento: ENE 7 km/h
Temperatura: 28°C
índice de calor: 30°C
Rocío: 21°C
Humedad: 66%
Barómetro: 1014 hPa
Nubes: Poco nuboso
Visibilidad: 10 km
Detalles de las nubes: Poco nuboso 610 m
2020/08/12 09:30 LEMG 120930Z 07004KT 020V170 9999 FEW020 28/21 Q1014 NOSIG
LEBA - Córdoba, Spain
Distancia de la estación: ENE 115km
Actualización: 12/08/2020 11:30
Muy nuboso
Muy nuboso
 Viento de O
Viento: O 15 km/h
Temperatura: 22°C
Rocío: 18°C
Humedad: 78%
Barómetro: 1016 hPa
Nubes: Muy nuboso
Visibilidad: 10 km
Detalles de las nubes: Parcialmente nuboso 610 m
Muy nuboso 762 m
2020/08/12 09:30 LEBA 120930Z 26008KT 230V290 9999 SCT020 BKN025 22/18 Q1016
 
LEGR - Granada, Spain
Distancia de la estación: E 198km
Actualización: 12/08/2020 11:30
Poco nuboso
Poco nuboso
 Viento de variable
Viento: variable 4 km/h
Temperatura: 26°C
Rocío: 17°C
Humedad: 58%
Barómetro: 1016 hPa
Nubes: Poco nuboso
Visibilidad: 10 km
Detalles de las nubes: Poco nuboso 1524 m
2020/08/12 09:30 LEGR 120930Z VRB02KT 9999 FEW050 26/17 Q1016
LEAM - Almería, Spain
Distancia de la estación: E 326km
Actualización: 12/08/2020 11:30
Poco nuboso
Poco nuboso
 Viento de SSO
Viento: SSO 11 km/h
Temperatura: 28°C
índice de calor: 32°C
Rocío: 24°C
Humedad: 79%
Barómetro: 1014 hPa
Nubes: Poco nuboso
Visibilidad: 10 km
Detalles de las nubes: Poco nuboso 610 m
2020/08/12 09:30 LEAM 120930Z 20006KT 170V240 9999 FEW020 28/24 Q1014
LEMD - Madrid/Barajas, Spain
Distancia de la estación: NNE 402km
Actualización: 12/08/2020 11:30
Poco nuboso
Poco nuboso
 Viento de N
Viento: N 4 km/h
Temperatura: 21°C
Rocío: 15°C
Humedad: 69%
Barómetro: 1017 hPa
Nubes: Poco nuboso
Visibilidad: 10 km
Detalles de las nubes: Poco nuboso 549 m
2020/08/12 09:30 LEMD 120930Z 01002KT 9999 FEW018 21/15 Q1017 NOSIG
 
LEVD - Valladolid, Spain
Distancia de la estación: N 492km
Actualización: 12/08/2020 11:30
Poco nuboso
Poco nuboso
 Viento de SSO
Viento: SSO 11 km/h
Temperatura: 20°C
Rocío: 15°C
Humedad: 73%
Barómetro: 1016 hPa
Nubes: Poco nuboso
Visibilidad: 10 km
Detalles de las nubes: Poco nuboso 1219 m
2020/08/12 09:30 LEVD 120930Z 21006KT 180V260 9999 FEW040 20/15 Q1016
LEBL - Barcelona, Spain
Distancia de la estación: NE 816km
Actualización: 12/08/2020 11:30
Poco nuboso
Poco nuboso
 Viento de ENE
Viento: ENE 15 km/h
Temperatura: 29°C
índice de calor: 32°C
Rocío: 22°C
Humedad: 66%
Barómetro: 1014 hPa
Nubes: Poco nuboso
Visibilidad: 10 km
Detalles de las nubes: Poco nuboso 610 m
2020/08/12 09:30 LEBL 120930Z 06008KT 030V090 9999 FEW020 29/22 Q1014 NOSIG
LEVC - Valencia, Spain
Distancia de la estación: ENE 535km
Actualización: 12/08/2020 11:30
Poco nuboso
Poco nuboso
 Viento de variable
Viento: variable 6 km/h
Temperatura: 31°C
índice de calor: 32°C
Rocío: 17°C
Humedad: 43%
Barómetro: 1014 hPa
Nubes: Poco nuboso
Visibilidad: 10 km
Detalles de las nubes: Poco nuboso 1067 m
2020/08/12 09:30 LEVC 120930Z VRB03KT 9999 FEW035 31/17 Q1014 NOSIG